sensor_id;sensor_type;location;lat;lon;timestamp;temperature;humidity
16728;DHT22;8482;54.396;18.590;2022-12-18T15:40:00;0.60;99.90
16728;DHT22;8482;54.396;18.590;2022-12-18T15:42:28;0.50;99.90
16728;DHT22;8482;54.396;18.590;2022-12-18T15:45:13;0.50;99.90
16728;DHT22;8482;54.396;18.590;2022-12-18T15:47:40;0.50;99.90
16728;DHT22;8482;54.396;18.590;2022-12-18T15:50:09;0.50;99.90
16728;DHT22;8482;54.396;18.590;2022-12-18T15:52:46;0.40;99.90
16728;DHT22;8482;54.396;18.590;2022-12-18T15:55:20;0.40;99.90
16728;DHT22;8482;54.396;18.590;2022-12-18T15:58:07;0.40;99.90
16728;DHT22;8482;54.396;18.590;2022-12-18T16:00:36;0.40;99.90
16728;DHT22;8482;54.396;18.590;2022-12-18T16:03:05;0.30;99.90
16728;DHT22;8482;54.396;18.590;2022-12-18T16:05:31;0.30;99.90
16728;DHT22;8482;54.396;18.590;2022-12-18T16:07:58;0.30;99.90
16728;DHT22;8482;54.396;18.590;2022-12-18T16:10:25;0.30;99.90
16728;DHT22;8482;54.396;18.590;2022-12-18T16:12:52;0.30;99.90
16728;DHT22;8482;54.396;18.590;2022-12-18T16:15:18;0.20;99.90
16728;DHT22;8482;54.396;18.590;2022-12-18T16:17:44;0.20;99.90
16728;DHT22;8482;54.396;18.590;2022-12-18T16:20:16;0.20;99.90
16728;DHT22;8482;54.396;18.590;2022-12-18T16:22:44;0.20;99.90
16728;DHT22;8482;54.396;18.590;2022-12-18T16:25:22;0.20;99.90
16728;DHT22;8482;54.396;18.590;2022-12-18T16:27:50;0.10;99.90
16728;DHT22;8482;54.396;18.590;2022-12-18T16:30:23;0.10;99.90
16728;DHT22;8482;54.396;18.590;2022-12-18T16:32:56;0.00;99.90
16728;DHT22;8482;54.396;18.590;2022-12-18T16:35:23;0.00;99.90
16728;DHT22;8482;54.396;18.590;2022-12-18T16:37:50;0.00;99.90
16728;DHT22;8482;54.396;18.590;2022-12-18T16:40:16;0.00;99.90
16728;DHT22;8482;54.396;18.590;2022-12-18T16:42:43;0.00;99.90
16728;DHT22;8482;54.396;18.590;2022-12-18T16:45:13;0.00;99.90
16728;DHT22;8482;54.396;18.590;2022-12-18T16:47:41;-0.10;99.90
16728;DHT22;8482;54.396;18.590;2022-12-18T16:50:09;-0.10;99.90
16728;DHT22;8482;54.396;18.590;2022-12-18T16:52:36;-0.20;99.90
16728;DHT22;8482;54.396;18.590;2022-12-18T16:55:02;-0.20;99.90
16728;DHT22;8482;54.396;18.590;2022-12-18T16:57:29;-0.30;99.90
16728;DHT22;8482;54.396;18.590;2022-12-18T16:59:58;-0.30;99.90
16728;DHT22;8482;54.396;18.590;2022-12-18T17:02:25;-0.40;99.90
16728;DHT22;8482;54.396;18.590;2022-12-18T17:04:53;-0.40;99.90
16728;DHT22;8482;54.396;18.590;2022-12-18T17:07:20;-0.40;99.90
16728;DHT22;8482;54.396;18.590;2022-12-18T17:09:46;-0.40;99.90
16728;DHT22;8482;54.396;18.590;2022-12-18T17:12:12;-0.40;99.90
16728;DHT22;8482;54.396;18.590;2022-12-18T17:14:38;-0.30;99.90
16728;DHT22;8482;54.396;18.590;2022-12-18T17:17:04;-0.30;99.90
16728;DHT22;8482;54.396;18.590;2022-12-18T17:19:30;-0.30;99.90
16728;DHT22;8482;54.396;18.590;2022-12-18T17:21:57;-0.30;99.90
16728;DHT22;8482;54.396;18.590;2022-12-18T17:24:23;-0.20;99.90
16728;DHT22;8482;54.396;18.590;2022-12-18T17:26:50;-0.20;99.90
16728;DHT22;8482;54.396;18.590;2022-12-18T17:29:18;-0.20;99.90
16728;DHT22;8482;54.396;18.590;2022-12-18T17:31:45;-0.20;99.90
16728;DHT22;8482;54.396;18.590;2022-12-18T17:34:13;-0.20;99.90
16728;DHT22;8482;54.396;18.590;2022-12-18T17:36:39;-0.20;99.90
16728;DHT22;8482;54.396;18.590;2022-12-18T17:39:06;-0.20;99.90
16728;DHT22;8482;54.396;18.590;2022-12-18T17:41:33;-0.20;99.90
16728;DHT22;8482;54.396;18.590;2022-12-18T17:44:03;-0.10;99.90
16728;DHT22;8482;54.396;18.590;2022-12-18T17:46:31;-0.10;99.90
16728;DHT22;8482;54.396;18.590;2022-12-18T17:49:00;-0.10;99.90
16728;DHT22;8482;54.396;18.590;2022-12-18T17:51:27;-0.10;99.90
16728;DHT22;8482;54.396;18.590;2022-12-18T17:53:54;-0.10;99.90
16728;DHT22;8482;54.396;18.590;2022-12-18T17:56:21;-0.10;99.90
16728;DHT22;8482;54.396;18.590;2022-12-18T17:58:49;-0.10;99.90
16728;DHT22;8482;54.396;18.590;2022-12-18T18:01:17;-0.10;99.90
16728;DHT22;8482;54.396;18.590;2022-12-18T18:03:48;-0.10;99.90
16728;DHT22;8482;54.396;18.590;2022-12-18T18:06:14;-0.20;99.90
16728;DHT22;8482;54.396;18.590;2022-12-18T18:08:41;-0.20;99.90
16728;DHT22;8482;54.396;18.590;2022-12-18T18:11:11;-0.20;99.90
16728;DHT22;8482;54.396;18.590;2022-12-18T18:13:58;-0.30;99.90
16728;DHT22;8482;54.396;18.590;2022-12-18T18:19:08;-0.30;99.90
16728;DHT22;8482;54.396;18.590;2022-12-18T18:21:38;-0.40;99.90
16728;DHT22;8482;54.396;18.590;2022-12-18T18:24:06;-0.40;99.90
16728;DHT22;8482;54.396;18.590;2022-12-18T18:26:34;-0.40;99.90
16728;DHT22;8482;54.396;18.590;2022-12-18T18:29:01;-0.40;99.90
16728;DHT22;8482;54.396;18.590;2022-12-18T18:31:30;-0.40;99.90
16728;DHT22;8482;54.396;18.590;2022-12-18T18:33:59;-0.40;99.90
16728;DHT22;8482;54.396;18.590;2022-12-18T18:36:26;-0.50;99.90
16728;DHT22;8482;54.396;18.590;2022-12-18T18:38:52;-0.50;99.90
16728;DHT22;8482;54.396;18.590;2022-12-18T18:41:20;-0.60;99.90
16728;DHT22;8482;54.396;18.590;2022-12-18T18:43:47;-0.70;99.90
16728;DHT22;8482;54.396;18.590;2022-12-18T18:46:14;-0.70;99.90
16728;DHT22;8482;54.396;18.590;2022-12-18T18:48:40;-0.80;99.90
16728;DHT22;8482;54.396;18.590;2022-12-18T18:51:14;-0.80;99.90
16728;DHT22;8482;54.396;18.590;2022-12-18T18:53:44;-0.90;99.90
16728;DHT22;8482;54.396;18.590;2022-12-18T18:56:13;-1.00;99.90
16728;DHT22;8482;54.396;18.590;2022-12-18T18:58:43;-1.00;99.90
16728;DHT22;8482;54.396;18.590;2022-12-18T19:01:18;-1.10;99.90
16728;DHT22;8482;54.396;18.590;2022-12-18T19:03:46;-1.10;99.90
16728;DHT22;8482;54.396;18.590;2022-12-18T19:06:21;-1.20;99.90
16728;DHT22;8482;54.396;18.590;2022-12-18T19:08:49;-1.20;99.90
16728;DHT22;8482;54.396;18.590;2022-12-18T19:11:16;-1.20;99.90
16728;DHT22;8482;54.396;18.590;2022-12-18T19:14:04;-1.20;99.90
16728;DHT22;8482;54.396;18.590;2022-12-18T19:16:32;-1.20;99.90
16728;DHT22;8482;54.396;18.590;2022-12-18T19:18:59;-1.10;99.90
16728;DHT22;8482;54.396;18.590;2022-12-18T19:21:25;-1.20;99.90
16728;DHT22;8482;54.396;18.590;2022-12-18T19:23:51;-1.10;99.90
16728;DHT22;8482;54.396;18.590;2022-12-18T19:26:18;-1.20;99.90
16728;DHT22;8482;54.396;18.590;2022-12-18T19:28:45;-1.10;99.90
16728;DHT22;8482;54.396;18.590;2022-12-18T19:31:12;-1.20;99.90
16728;DHT22;8482;54.396;18.590;2022-12-18T19:33:42;-1.10;99.90
16728;DHT22;8482;54.396;18.590;2022-12-18T19:38:38;-1.10;99.90
16728;DHT22;8482;54.396;18.590;2022-12-18T19:41:05;-1.10;99.90
16728;DHT22;8482;54.396;18.590;2022-12-18T19:43:33;-1.10;99.90
16728;DHT22;8482;54.396;18.590;2022-12-18T19:46:05;-1.10;99.90
16728;DHT22;8482;54.396;18.590;2022-12-18T19:48:33;-1.20;99.90
16728;DHT22;8482;54.396;18.590;2022-12-18T19:51:07;-1.10;99.90
16728;DHT22;8482;54.396;18.590;2022-12-18T19:53:34;-1.20;99.90
16728;DHT22;8482;54.396;18.590;2022-12-18T19:56:07;-1.10;99.90
16728;DHT22;8482;54.396;18.590;2022-12-18T19:58:35;-1.10;99.90
16728;DHT22;8482;54.396;18.590;2022-12-18T20:01:01;-1.20;99.90
16728;DHT22;8482;54.396;18.590;2022-12-18T20:03:27;-1.20;99.90
16728;DHT22;8482;54.396;18.590;2022-12-18T20:05:54;-1.10;99.90
16728;DHT22;8482;54.396;18.590;2022-12-18T20:08:20;-1.20;99.90
16728;DHT22;8482;54.396;18.590;2022-12-18T20:10:45;-1.20;99.90
16728;DHT22;8482;54.396;18.590;2022-12-18T20:13:16;-1.20;99.90
16728;DHT22;8482;54.396;18.590;2022-12-18T20:15:42;-1.20;99.90
16728;DHT22;8482;54.396;18.590;2022-12-18T20:18:09;-1.30;99.90
16728;DHT22;8482;54.396;18.590;2022-12-18T20:20:35;-1.30;99.90
16728;DHT22;8482;54.396;18.590;2022-12-18T20:23:02;-1.30;99.90
16728;DHT22;8482;54.396;18.590;2022-12-18T20:25:29;-1.30;99.90
16728;DHT22;8482;54.396;18.590;2022-12-18T20:27:58;-1.30;99.90
16728;DHT22;8482;54.396;18.590;2022-12-18T20:30:25;-1.40;99.90
16728;DHT22;8482;54.396;18.590;2022-12-18T20:32:51;-1.40;99.90
16728;DHT22;8482;54.396;18.590;2022-12-18T20:35:17;-1.40;99.90
16728;DHT22;8482;54.396;18.590;2022-12-18T20:37:43;-1.50;99.90
16728;DHT22;8482;54.396;18.590;2022-12-18T20:40:12;-1.50;99.90
16728;DHT22;8482;54.396;18.590;2022-12-18T20:42:39;-1.50;99.90
16728;DHT22;8482;54.396;18.590;2022-12-18T20:45:05;-1.50;99.90
16728;DHT22;8482;54.396;18.590;2022-12-18T20:47:32;-1.50;99.90
16728;DHT22;8482;54.396;18.590;2022-12-18T20:49:58;-1.50;99.90
16728;DHT22;8482;54.396;18.590;2022-12-18T20:52:25;-1.60;99.90
16728;DHT22;8482;54.396;18.590;2022-12-18T20:54:51;-1.50;99.90
16728;DHT22;8482;54.396;18.590;2022-12-18T20:57:17;-1.60;99.90
16728;DHT22;8482;54.396;18.590;2022-12-18T20:59:42;-1.60;99.90
16728;DHT22;8482;54.396;18.590;2022-12-18T21:02:11;-1.60;99.90
16728;DHT22;8482;54.396;18.590;2022-12-18T21:04:38;-1.60;99.90
16728;DHT22;8482;54.396;18.590;2022-12-18T21:07:04;-1.60;99.90
16728;DHT22;8482;54.396;18.590;2022-12-18T21:09:30;-1.70;99.90
16728;DHT22;8482;54.396;18.590;2022-12-18T21:11:56;-1.70;99.90
16728;DHT22;8482;54.396;18.590;2022-12-18T21:14:41;-1.70;99.90
16728;DHT22;8482;54.396;18.590;2022-12-18T21:17:09;-1.80;99.90
16728;DHT22;8482;54.396;18.590;2022-12-18T21:19:36;-1.80;99.90
16728;DHT22;8482;54.396;18.590;2022-12-18T21:22:02;-1.80;99.90
16728;DHT22;8482;54.396;18.590;2022-12-18T21:24:28;-1.80;99.90
16728;DHT22;8482;54.396;18.590;2022-12-18T21:26:54;-1.80;99.90
16728;DHT22;8482;54.396;18.590;2022-12-18T21:29:23;-1.90;99.90
16728;DHT22;8482;54.396;18.590;2022-12-18T21:31:51;-1.90;99.90
16728;DHT22;8482;54.396;18.590;2022-12-18T21:34:24;-1.90;99.90
16728;DHT22;8482;54.396;18.590;2022-12-18T21:36:53;-1.90;99.90
16728;DHT22;8482;54.396;18.590;2022-12-18T21:39:21;-1.90;99.90
16728;DHT22;8482;54.396;18.590;2022-12-18T21:41:48;-1.90;99.90
16728;DHT22;8482;54.396;18.590;2022-12-18T21:44:33;-1.90;99.90
16728;DHT22;8482;54.396;18.590;2022-12-18T21:46:58;-2.00;99.90
16728;DHT22;8482;54.396;18.590;2022-12-18T21:49:25;-2.00;99.90
16728;DHT22;8482;54.396;18.590;2022-12-18T21:51:53;-1.90;99.90
16728;DHT22;8482;54.396;18.590;2022-12-18T21:54:20;-2.00;99.90
16728;DHT22;8482;54.396;18.590;2022-12-18T21:59:24;-2.00;99.90
16728;DHT22;8482;54.396;18.590;2022-12-18T22:02:04;-2.00;99.90
16728;DHT22;8482;54.396;18.590;2022-12-18T22:04:31;-2.00;99.90
16728;DHT22;8482;54.396;18.590;2022-12-18T22:06:57;-2.00;99.90
16728;DHT22;8482;54.396;18.590;2022-12-18T22:09:24;-2.00;99.90
16728;DHT22;8482;54.396;18.590;2022-12-18T22:11:51;-2.00;99.90
16728;DHT22;8482;54.396;18.590;2022-12-18T22:14:17;-2.00;99.90
16728;DHT22;8482;54.396;18.590;2022-12-18T22:16:44;-2.00;99.90
16728;DHT22;8482;54.396;18.590;2022-12-18T22:19:11;-1.90;99.90
16728;DHT22;8482;54.396;18.590;2022-12-18T22:21:40;-2.00;99.90
16728;DHT22;8482;54.396;18.590;2022-12-18T22:24:18;-2.00;99.90
16728;DHT22;8482;54.396;18.590;2022-12-18T22:26:48;-1.90;99.90
16728;DHT22;8482;54.396;18.590;2022-12-18T22:29:21;-1.90;99.90
16728;DHT22;8482;54.396;18.590;2022-12-18T22:32:08;-1.90;99.90
16728;DHT22;8482;54.396;18.590;2022-12-18T22:34:37;-1.90;99.90
16728;DHT22;8482;54.396;18.590;2022-12-18T22:37:03;-1.90;99.90
16728;DHT22;8482;54.396;18.590;2022-12-18T22:39:30;-1.90;99.90
